sensor_id;sensor_type;location;lat;lon;timestamp;P1;durP1;ratioP1;P2;durP2;ratioP2
21754;SDS011;11039;50.028;19.938;2023-09-19T00:00:33;13.93;;;12.40;;
21754;SDS011;11039;50.028;19.938;2023-09-19T00:03:00;16.38;;;11.90;;
21754;SDS011;11039;50.028;19.938;2023-09-19T00:05:27;14.18;;;12.35;;
21754;SDS011;11039;50.028;19.938;2023-09-19T00:07:54;15.63;;;12.20;;
21754;SDS011;11039;50.028;19.938;2023-09-19T00:10:21;15.32;;;11.85;;
21754;SDS011;11039;50.028;19.938;2023-09-19T00:12:49;15.60;;;11.82;;
21754;SDS011;11039;50.028;19.938;2023-09-19T00:15:16;14.52;;;11.80;;
21754;SDS011;11039;50.028;19.938;2023-09-19T00:17:43;16.17;;;11.93;;
21754;SDS011;11039;50.028;19.938;2023-09-19T00:20:09;17.85;;;12.48;;
21754;SDS011;11039;50.028;19.938;2023-09-19T00:22:41;15.18;;;12.23;;
21754;SDS011;11039;50.028;19.938;2023-09-19T00:25:10;13.70;;;12.02;;
21754;SDS011;11039;50.028;19.938;2023-09-19T00:27:40;13.48;;;11.82;;
21754;SDS011;11039;50.028;19.938;2023-09-19T00:30:08;15.18;;;11.82;;
21754;SDS011;11039;50.028;19.938;2023-09-19T00:32:44;14.65;;;12.27;;
21754;SDS011;11039;50.028;19.938;2023-09-19T00:35:12;16.05;;;12.43;;
21754;SDS011;11039;50.028;19.938;2023-09-19T00:37:40;14.60;;;12.80;;
21754;SDS011;11039;50.028;19.938;2023-09-19T00:40:06;12.80;;;11.57;;
21754;SDS011;11039;50.028;19.938;2023-09-19T00:42:37;14.80;;;12.68;;
21754;SDS011;11039;50.028;19.938;2023-09-19T00:45:03;15.32;;;12.20;;
21754;SDS011;11039;50.028;19.938;2023-09-19T00:47:30;14.10;;;12.15;;
21754;SDS011;11039;50.028;19.938;2023-09-19T00:49:56;14.88;;;12.18;;
21754;SDS011;11039;50.028;19.938;2023-09-19T00:52:23;17.48;;;12.18;;
21754;SDS011;11039;50.028;19.938;2023-09-19T00:54:49;14.52;;;12.48;;
21754;SDS011;11039;50.028;19.938;2023-09-19T00:57:15;15.38;;;12.90;;
21754;SDS011;11039;50.028;19.938;2023-09-19T00:59:42;13.77;;;12.23;;
21754;SDS011;11039;50.028;19.938;2023-09-19T01:02:08;14.40;;;12.25;;
21754;SDS011;11039;50.028;19.938;2023-09-19T01:04:36;15.60;;;12.68;;
21754;SDS011;11039;50.028;19.938;2023-09-19T01:07:02;16.15;;;12.98;;
21754;SDS011;11039;50.028;19.938;2023-09-19T01:09:28;14.88;;;12.77;;
21754;SDS011;11039;50.028;19.938;2023-09-19T01:11:57;14.73;;;12.23;;
21754;SDS011;11039;50.028;19.938;2023-09-19T01:17:29;14.07;;;12.45;;
21754;SDS011;11039;50.028;19.938;2023-09-19T01:22:36;15.50;;;11.88;;
21754;SDS011;11039;50.028;19.938;2023-09-19T01:30:24;15.07;;;11.60;;
21754;SDS011;11039;50.028;19.938;2023-09-19T01:32:54;14.20;;;11.70;;
21754;SDS011;11039;50.028;19.938;2023-09-19T01:35:20;15.15;;;12.13;;
21754;SDS011;11039;50.028;19.938;2023-09-19T01:37:46;14.00;;;11.40;;
21754;SDS011;11039;50.028;19.938;2023-09-19T01:40:13;13.52;;;11.55;;
21754;SDS011;11039;50.028;19.938;2023-09-19T01:50:39;13.20;;;11.38;;
21754;SDS011;11039;50.028;19.938;2023-09-19T01:53:14;11.40;;;10.25;;
21754;SDS011;11039;50.028;19.938;2023-09-19T01:55:43;11.93;;;10.70;;
21754;SDS011;11039;50.028;19.938;2023-09-19T02:00:41;12.40;;;11.10;;
21754;SDS011;11039;50.028;19.938;2023-09-19T02:03:09;12.40;;;11.10;;
21754;SDS011;11039;50.028;19.938;2023-09-19T02:05:35;11.90;;;10.57;;
21754;SDS011;11039;50.028;19.938;2023-09-19T02:08:01;13.13;;;10.82;;
21754;SDS011;11039;50.028;19.938;2023-09-19T02:10:27;12.38;;;11.18;;
21754;SDS011;11039;50.028;19.938;2023-09-19T02:12:53;12.05;;;10.73;;
21754;SDS011;11039;50.028;19.938;2023-09-19T02:15:20;12.25;;;10.98;;
21754;SDS011;11039;50.028;19.938;2023-09-19T02:17:47;11.82;;;10.68;;
21754;SDS011;11039;50.028;19.938;2023-09-19T02:20:13;12.52;;;11.20;;
21754;SDS011;11039;50.028;19.938;2023-09-19T02:22:44;11.60;;;10.50;;
21754;SDS011;11039;50.028;19.938;2023-09-19T02:25:10;11.63;;;10.45;;
21754;SDS011;11039;50.028;19.938;2023-09-19T02:27:38;13.15;;;10.93;;
21754;SDS011;11039;50.028;19.938;2023-09-19T02:30:05;11.82;;;10.63;;
21754;SDS011;11039;50.028;19.938;2023-09-19T02:32:31;12.18;;;10.98;;
21754;SDS011;11039;50.028;19.938;2023-09-19T02:35:00;11.15;;;10.00;;
21754;SDS011;11039;50.028;19.938;2023-09-19T02:37:26;11.57;;;10.30;;
21754;SDS011;11039;50.028;19.938;2023-09-19T02:39:52;11.85;;;10.25;;
21754;SDS011;11039;50.028;19.938;2023-09-19T02:46:55;11.18;;;10.00;;
21754;SDS011;11039;50.028;19.938;2023-09-19T02:49:22;12.23;;;10.77;;
21754;SDS011;11039;50.028;19.938;2023-09-19T02:51:48;10.98;;;9.88;;
21754;SDS011;11039;50.028;19.938;2023-09-19T02:54:14;11.25;;;10.18;;
21754;SDS011;11039;50.028;19.938;2023-09-19T02:56:44;11.52;;;10.43;;
21754;SDS011;11039;50.028;19.938;2023-09-19T02:59:10;11.82;;;10.63;;
21754;SDS011;11039;50.028;19.938;2023-09-19T03:01:36;12.00;;;10.73;;
21754;SDS011;11039;50.028;19.938;2023-09-19T03:04:03;11.32;;;10.23;;
21754;SDS011;11039;50.028;19.938;2023-09-19T03:06:36;12.18;;;10.32;;
21754;SDS011;11039;50.028;19.938;2023-09-19T03:09:03;11.50;;;10.30;;
21754;SDS011;11039;50.028;19.938;2023-09-19T03:11:37;11.32;;;10.13;;
21754;SDS011;11039;50.028;19.938;2023-09-19T03:14:05;12.30;;;11.00;;
21754;SDS011;11039;50.028;19.938;2023-09-19T03:16:31;12.40;;;11.10;;
21754;SDS011;11039;50.028;19.938;2023-09-19T03:18:58;11.57;;;10.35;;
21754;SDS011;11039;50.028;19.938;2023-09-19T03:21:25;12.15;;;10.95;;
21754;SDS011;11039;50.028;19.938;2023-09-19T03:23:51;12.18;;;10.10;;
21754;SDS011;11039;50.028;19.938;2023-09-19T03:26:17;11.32;;;9.98;;
21754;SDS011;11039;50.028;19.938;2023-09-19T03:28:43;11.50;;;10.32;;
21754;SDS011;11039;50.028;19.938;2023-09-19T03:31:10;11.75;;;10.38;;
21754;SDS011;11039;50.028;19.938;2023-09-19T03:33:37;11.43;;;10.23;;
21754;SDS011;11039;50.028;19.938;2023-09-19T03:36:03;11.75;;;10.35;;
21754;SDS011;11039;50.028;19.938;2023-09-19T03:38:32;12.93;;;11.52;;
21754;SDS011;11039;50.028;19.938;2023-09-19T03:40:59;12.52;;;10.88;;
21754;SDS011;11039;50.028;19.938;2023-09-19T03:43:26;13.98;;;11.57;;
21754;SDS011;11039;50.028;19.938;2023-09-19T03:45:52;11.50;;;10.45;;
21754;SDS011;11039;50.028;19.938;2023-09-19T03:48:19;12.05;;;10.82;;
21754;SDS011;11039;50.028;19.938;2023-09-19T03:50:47;11.43;;;10.25;;
21754;SDS011;11039;50.028;19.938;2023-09-19T03:53:13;12.27;;;10.95;;
21754;SDS011;11039;50.028;19.938;2023-09-19T03:57:58;12.80;;;10.82;;
21754;SDS011;11039;50.028;19.938;2023-09-19T04:00:24;12.40;;;10.90;;
21754;SDS011;11039;50.028;19.938;2023-09-19T04:02:51;13.18;;;10.90;;
21754;SDS011;11039;50.028;19.938;2023-09-19T04:05:18;12.07;;;10.88;;
21754;SDS011;11039;50.028;19.938;2023-09-19T04:07:44;13.88;;;10.70;;
21754;SDS011;11039;50.028;19.938;2023-09-19T04:10:10;14.48;;;11.07;;
21754;SDS011;11039;50.028;19.938;2023-09-19T04:12:37;12.80;;;11.40;;
21754;SDS011;11039;50.028;19.938;2023-09-19T04:15:06;11.85;;;10.65;;
21754;SDS011;11039;50.028;19.938;2023-09-19T04:19:51;13.25;;;11.90;;
21754;SDS011;11039;50.028;19.938;2023-09-19T04:22:18;12.90;;;11.13;;
21754;SDS011;11039;50.028;19.938;2023-09-19T04:24:44;13.38;;;11.43;;
21754;SDS011;11039;50.028;19.938;2023-09-19T04:27:10;13.07;;;11.68;;
21754;SDS011;11039;50.028;19.938;2023-09-19T04:31:57;12.82;;;11.18;;
21754;SDS011;11039;50.028;19.938;2023-09-19T04:34:23;12.88;;;11.57;;
21754;SDS011;11039;50.028;19.938;2023-09-19T04:36:49;15.02;;;11.57;;
21754;SDS011;11039;50.028;19.938;2023-09-19T04:39:15;12.20;;;10.95;;
21754;SDS011;11039;50.028;19.938;2023-09-19T04:44:02;11.90;;;10.77;;
21754;SDS011;11039;50.028;19.938;2023-09-19T04:46:28;12.70;;;11.40;;
21754;SDS011;11039;50.028;19.938;2023-09-19T04:48:55;12.90;;;11.40;;
21754;SDS011;11039;50.028;19.938;2023-09-19T04:51:21;12.38;;;11.15;;
21754;SDS011;11039;50.028;19.938;2023-09-19T04:53:47;12.90;;;11.63;;
21754;SDS011;11039;50.028;19.938;2023-09-19T04:56:13;13.02;;;11.63;;
21754;SDS011;11039;50.028;19.938;2023-09-19T04:58:40;14.80;;;11.82;;
21754;SDS011;11039;50.028;19.938;2023-09-19T05:01:06;12.18;;;10.98;;
21754;SDS011;11039;50.028;19.938;2023-09-19T05:03:36;16.77;;;11.75;;
21754;SDS011;11039;50.028;19.938;2023-09-19T05:06:03;13.57;;;11.18;;
21754;SDS011;11039;50.028;19.938;2023-09-19T05:08:30;12.88;;;11.35;;
21754;SDS011;11039;50.028;19.938;2023-09-19T05:10:56;12.85;;;11.55;;
21754;SDS011;11039;50.028;19.938;2023-09-19T05:13:22;12.93;;;11.73;;
21754;SDS011;11039;50.028;19.938;2023-09-19T05:15:49;14.15;;;12.10;;
21754;SDS011;11039;50.028;19.938;2023-09-19T05:18:15;15.00;;;11.82;;
21754;SDS011;11039;50.028;19.938;2023-09-19T05:20:41;13.00;;;11.70;;
21754;SDS011;11039;50.028;19.938;2023-09-19T05:23:08;13.30;;;12.00;;
21754;SDS011;11039;50.028;19.938;2023-09-19T05:25:36;13.73;;;11.48;;
21754;SDS011;11039;50.028;19.938;2023-09-19T05:28:06;13.15;;;11.07;;
21754;SDS011;11039;50.028;19.938;2023-09-19T05:30:33;12.68;;;11.15;;
21754;SDS011;11039;50.028;19.938;2023-09-19T05:33:01;13.23;;;11.13;;
21754;SDS011;11039;50.028;19.938;2023-09-19T05:35:27;13.52;;;12.23;;
21754;SDS011;11039;50.028;19.938;2023-09-19T05:37:53;12.73;;;11.32;;
21754;SDS011;11039;50.028;19.938;2023-09-19T05:40:21;14.52;;;12.20;;
21754;SDS011;11039;50.028;19.938;2023-09-19T05:42:47;14.02;;;11.93;;
21754;SDS011;11039;50.028;19.938;2023-09-19T05:45:14;12.25;;;11.02;;
21754;SDS011;11039;50.028;19.938;2023-09-19T05:47:44;14.65;;;11.90;;
21754;SDS011;11039;50.028;19.938;2023-09-19T05:50:11;13.40;;;12.00;;
21754;SDS011;11039;50.028;19.938;2023-09-19T05:52:38;13.15;;;11.77;;
21754;SDS011;11039;50.028;19.938;2023-09-19T05:55:04;13.25;;;10.90;;
21754;SDS011;11039;50.028;19.938;2023-09-19T05:57:32;14.50;;;11.75;;
21754;SDS011;11039;50.028;19.938;2023-09-19T05:59:58;12.98;;;11.60;;
21754;SDS011;11039;50.028;19.938;2023-09-19T06:02:24;12.55;;;11.32;;
21754;SDS011;11039;50.028;19.938;2023-09-19T06:04:55;15.02;;;11.43;;
21754;SDS011;11039;50.028;19.938;2023-09-19T06:07:21;15.57;;;11.75;;
21754;SDS011;11039;50.028;19.938;2023-09-19T06:09:51;14.88;;;11.70;;
21754;SDS011;11039;50.028;19.938;2023-09-19T06:12:18;14.00;;;11.98;;
21754;SDS011;11039;50.028;19.938;2023-09-19T06:14:44;15.52;;;12.23;;
21754;SDS011;11039;50.028;19.938;2023-09-19T06:17:11;14.88;;;11.98;;
21754;SDS011;11039;50.028;19.938;2023-09-19T06:19:37;15.43;;;12.35;;
21754;SDS011;11039;50.028;19.938;2023-09-19T06:22:03;17.25;;;12.55;;
21754;SDS011;11039;50.028;19.938;2023-09-19T06:24:29;15.30;;;12.80;;
21754;SDS011;11039;50.028;19.938;2023-09-19T06:26:55;17.75;;;13.52;;
21754;SDS011;11039;50.028;19.938;2023-09-19T06:29:22;14.82;;;13.15;;
21754;SDS011;11039;50.028;19.938;2023-09-19T06:31:48;16.83;;;13.15;;
21754;SDS011;11039;50.028;19.938;2023-09-19T06:34:14;15.27;;;13.20;;
21754;SDS011;11039;50.028;19.938;2023-09-19T06:36:41;17.50;;;13.80;;
21754;SDS011;11039;50.028;19.938;2023-09-19T06:39:08;16.30;;;13.00;;
21754;SDS011;11039;50.028;19.938;2023-09-19T06:41:36;16.30;;;13.52;;
21754;SDS011;11039;50.028;19.938;2023-09-19T06:44:03;16.10;;;13.35;;
21754;SDS011;11039;50.028;19.938;2023-09-19T06:46:30;16.33;;;13.20;;
21754;SDS011;11039;50.028;19.938;2023-09-19T06:49:00;15.52;;;13.85;;
21754;SDS011;11039;50.028;19.938;2023-09-19T06:51:32;17.05;;;14.38;;
21754;SDS011;11039;50.028;19.938;2023-09-19T06:53:59;15.75;;;13.85;;
21754;SDS011;11039;50.028;19.938;2023-09-19T06:56:26;18.40;;;13.80;;
21754;SDS011;11039;50.028;19.938;2023-09-19T06:58:52;14.55;;;12.50;;
21754;SDS011;11039;50.028;19.938;2023-09-19T07:03:50;15.60;;;13.40;;
21754;SDS011;11039;50.028;19.938;2023-09-19T07:06:16;14.95;;;12.65;;
21754;SDS011;11039;50.028;19.938;2023-09-19T07:08:42;16.00;;;12.55;;
21754;SDS011;11039;50.028;19.938;2023-09-19T07:11:10;15.48;;;13.15;;
21754;SDS011;11039;50.028;19.938;2023-09-19T07:13:37;16.85;;;13.63;;
21754;SDS011;11039;50.028;19.938;2023-09-19T07:16:04;14.43;;;12.65;;
21754;SDS011;11039;50.028;19.938;2023-09-19T07:18:30;13.98;;;12.57;;
21754;SDS011;11039;50.028;19.938;2023-09-19T07:20:59;14.23;;;12.82;;
21754;SDS011;11039;50.028;19.938;2023-09-19T07:23:30;14.38;;;12.73;;
21754;SDS011;11039;50.028;19.938;2023-09-19T07:26:00;15.80;;;12.02;;
21754;SDS011;11039;50.028;19.938;2023-09-19T07:28:26;15.43;;;12.77;;
21754;SDS011;11039;50.028;19.938;2023-09-19T07:30:53;13.45;;;12.05;;
21754;SDS011;11039;50.028;19.938;2023-09-19T07:33:19;13.30;;;11.68;;
21754;SDS011;11039;50.028;19.938;2023-09-19T07:35:48;14.48;;;11.63;;
21754;SDS011;11039;50.028;19.938;2023-09-19T07:38:14;14.07;;;12.52;;
21754;SDS011;11039;50.028;19.938;2023-09-19T07:40:40;13.48;;;12.07;;
21754;SDS011;11039;50.028;19.938;2023-09-19T07:43:06;13.82;;;11.98;;
21754;SDS011;11039;50.028;19.938;2023-09-19T07:45:33;14.80;;;12.20;;
21754;SDS011;11039;50.028;19.938;2023-09-19T07:48:01;13.15;;;11.82;;
21754;SDS011;11039;50.028;19.938;2023-09-19T07:50:33;13.15;;;11.48;;
21754;SDS011;11039;50.028;19.938;2023-09-19T07:53:01;12.45;;;11.25;;
21754;SDS011;11039;50.028;19.938;2023-09-19T07:55:30;12.00;;;10.80;;
21754;SDS011;11039;50.028;19.938;2023-09-19T07:57:58;12.70;;;9.90;;
21754;SDS011;11039;50.028;19.938;2023-09-19T08:00:25;11.85;;;10.48;;
21754;SDS011;11039;50.028;19.938;2023-09-19T08:02:51;11.63;;;9.90;;
21754;SDS011;11039;50.028;19.938;2023-09-19T08:05:17;10.52;;;9.45;;
21754;SDS011;11039;50.028;19.938;2023-09-19T08:07:44;10.23;;;9.10;;
21754;SDS011;11039;50.028;19.938;2023-09-19T08:10:13;11.52;;;10.43;;
21754;SDS011;11039;50.028;19.938;2023-09-19T08:12:41;10.00;;;9.02;;
21754;SDS011;11039;50.028;19.938;2023-09-19T08:15:15;10.02;;;8.57;;
21754;SDS011;11039;50.028;19.938;2023-09-19T08:17:41;10.07;;;8.15;;
21754;SDS011;11039;50.028;19.938;2023-09-19T08:20:08;8.80;;;7.72;;
21754;SDS011;11039;50.028;19.938;2023-09-19T08:22:41;8.80;;;7.90;;
21754;SDS011;11039;50.028;19.938;2023-09-19T08:25:07;8.18;;;7.18;;
21754;SDS011;11039;50.028;19.938;2023-09-19T08:32:10;7.65;;;6.80;;
21754;SDS011;11039;50.028;19.938;2023-09-19T08:36:55;7.45;;;6.50;;
21754;SDS011;11039;50.028;19.938;2023-09-19T08:39:25;7.60;;;6.63;;
21754;SDS011;11039;50.028;19.938;2023-09-19T08:42:00;6.70;;;5.95;;
21754;SDS011;11039;50.028;19.938;2023-09-19T08:44:26;9.85;;;6.70;;
21754;SDS011;11039;50.028;19.938;2023-09-19T08:46:59;7.93;;;6.13;;
21754;SDS011;11039;50.028;19.938;2023-09-19T08:49:33;7.53;;;6.22;;
21754;SDS011;11039;50.028;19.938;2023-09-19T08:52:22;7.68;;;6.43;;
21754;SDS011;11039;50.028;19.938;2023-09-19T08:54:48;8.20;;;6.15;;
21754;SDS011;11039;50.028;19.938;2023-09-19T08:57:16;7.93;;;6.85;;
21754;SDS011;11039;50.028;19.938;2023-09-19T08:59:47;6.88;;;6.07;;
21754;SDS011;11039;50.028;19.938;2023-09-19T09:02:16;5.78;;;5.00;;
21754;SDS011;11039;50.028;19.938;2023-09-19T09:04:44;6.35;;;5.45;;
21754;SDS011;11039;50.028;19.938;2023-09-19T09:07:11;6.00;;;5.40;;
21754;SDS011;11039;50.028;19.938;2023-09-19T09:09:44;6.25;;;5.47;;
21754;SDS011;11039;50.028;19.938;2023-09-19T09:12:13;5.10;;;4.60;;
21754;SDS011;11039;50.028;19.938;2023-09-19T09:14:40;5.75;;;5.22;;
21754;SDS011;11039;50.028;19.938;2023-09-19T09:17:10;5.68;;;4.70;;
21754;SDS011;11039;50.028;19.938;2023-09-19T09:19:37;5.75;;;4.93;;
21754;SDS011;11039;50.028;19.938;2023-09-19T09:22:09;5.88;;;5.15;;
21754;SDS011;11039;50.028;19.938;2023-09-19T09:24:36;7.18;;;5.40;;
21754;SDS011;11039;50.028;19.938;2023-09-19T09:32:39;5.60;;;5.00;;
21754;SDS011;11039;50.028;19.938;2023-09-19T09:35:00;7.85;;;5.60;;
21754;SDS011;11039;50.028;19.938;2023-09-19T09:37:29;5.40;;;4.90;;
21754;SDS011;11039;50.028;19.938;2023-09-19T09:39:56;6.68;;;5.40;;
21754;SDS011;11039;50.028;19.938;2023-09-19T09:42:44;5.90;;;5.30;;
21754;SDS011;11039;50.028;19.938;2023-09-19T09:47:42;5.85;;;5.18;;
21754;SDS011;11039;50.028;19.938;2023-09-19T09:50:29;5.05;;;4.55;;
21754;SDS011;11039;50.028;19.938;2023-09-19T09:53:03;7.72;;;5.22;;
21754;SDS011;11039;50.028;19.938;2023-09-19T09:55:56;6.53;;;5.30;;
21754;SDS011;11039;50.028;19.938;2023-09-19T09:58:18;6.38;;;4.65;;
21754;SDS011;11039;50.028;19.938;2023-09-19T10:00:54;5.07;;;4.47;;
21754;SDS011;11039;50.028;19.938;2023-09-19T10:03:23;5.30;;;4.30;;
21754;SDS011;11039;50.028;19.938;2023-09-19T10:05:56;6.13;;;4.93;;
21754;SDS011;11039;50.028;19.938;2023-09-19T10:08:23;5.25;;;4.75;;
21754;SDS011;11039;50.028;19.938;2023-09-19T10:10:51;5.38;;;4.68;;
21754;SDS011;11039;50.028;19.938;2023-09-19T10:13:17;5.65;;;4.78;;
21754;SDS011;11039;50.028;19.938;2023-09-19T10:15:50;6.28;;;4.75;;
21754;SDS011;11039;50.028;19.938;2023-09-19T10:18:26;6.30;;;4.28;;
21754;SDS011;11039;50.028;19.938;2023-09-19T10:20:57;6.55;;;4.55;;
21754;SDS011;11039;50.028;19.938;2023-09-19T10:23:27;5.50;;;4.10;;
21754;SDS011;11039;50.028;19.938;2023-09-19T10:25:55;5.20;;;4.07;;
21754;SDS011;11039;50.028;19.938;2023-09-19T10:28:22;5.03;;;4.28;;
21754;SDS011;11039;50.028;19.938;2023-09-19T10:33:07;5.63;;;4.13;;
21754;SDS011;11039;50.028;19.938;2023-09-19T10:35:34;6.53;;;4.78;;
21754;SDS011;11039;50.028;19.938;2023-09-19T10:38:05;4.35;;;3.95;;
21754;SDS011;11039;50.028;19.938;2023-09-19T10:40:33;5.70;;;4.22;;
21754;SDS011;11039;50.028;19.938;2023-09-19T10:43:02;5.20;;;3.80;;
21754;SDS011;11039;50.028;19.938;2023-09-19T10:47:51;8.88;;;4.22;;
21754;SDS011;11039;50.028;19.938;2023-09-19T10:52:37;5.38;;;4.28;;
21754;SDS011;11039;50.028;19.938;2023-09-19T10:55:05;4.20;;;3.80;;
21754;SDS011;11039;50.028;19.938;2023-09-19T10:57:31;9.65;;;4.47;;
21754;SDS011;11039;50.028;19.938;2023-09-19T11:00:06;4.85;;;3.83;;
21754;SDS011;11039;50.028;19.938;2023-09-19T11:05:32;5.10;;;4.28;;
21754;SDS011;11039;50.028;19.938;2023-09-19T11:07:59;6.38;;;4.60;;
21754;SDS011;11039;50.028;19.938;2023-09-19T11:10:48;6.13;;;4.50;;
21754;SDS011;11039;50.028;19.938;2023-09-19T11:13:28;6.57;;;4.22;;
21754;SDS011;11039;50.028;19.938;2023-09-19T11:25:43;5.00;;;4.30;;
21754;SDS011;11039;50.028;19.938;2023-09-19T11:30:44;5.57;;;4.28;;
21754;SDS011;11039;50.028;19.938;2023-09-19T11:33:17;7.22;;;3.85;;
21754;SDS011;11039;50.028;19.938;2023-09-19T11:43:54;6.10;;;4.22;;
21754;SDS011;11039;50.028;19.938;2023-09-19T11:49:18;5.07;;;3.80;;
21754;SDS011;11039;50.028;19.938;2023-09-19T11:51:50;5.80;;;3.83;;
21754;SDS011;11039;50.028;19.938;2023-09-19T11:54:17;5.05;;;3.70;;
21754;SDS011;11039;50.028;19.938;2023-09-19T11:56:48;7.10;;;3.78;;
21754;SDS011;11039;50.028;19.938;2023-09-19T12:01:51;4.57;;;3.80;;
21754;SDS011;11039;50.028;19.938;2023-09-19T12:04:39;3.95;;;3.50;;
21754;SDS011;11039;50.028;19.938;2023-09-19T12:07:09;5.55;;;3.63;;
21754;SDS011;11039;50.028;19.938;2023-09-19T12:11:59;4.15;;;3.63;;
21754;SDS011;11039;50.028;19.938;2023-09-19T12:14:25;5.10;;;3.47;;
21754;SDS011;11039;50.028;19.938;2023-09-19T12:16:55;4.22;;;3.42;;
21754;SDS011;11039;50.028;19.938;2023-09-19T12:19:22;4.30;;;3.80;;
21754;SDS011;11039;50.028;19.938;2023-09-19T12:21:55;5.43;;;3.60;;
21754;SDS011;11039;50.028;19.938;2023-09-19T12:24:23;5.35;;;3.70;;
21754;SDS011;11039;50.028;19.938;2023-09-19T12:26:51;5.18;;;3.80;;
21754;SDS011;11039;50.028;19.938;2023-09-19T12:29:18;6.35;;;3.78;;
21754;SDS011;11039;50.028;19.938;2023-09-19T12:31:54;5.28;;;3.67;;
21754;SDS011;11039;50.028;19.938;2023-09-19T12:34:31;4.97;;;3.88;;
21754;SDS011;11039;50.028;19.938;2023-09-19T12:39:43;4.78;;;4.18;;
21754;SDS011;11039;50.028;19.938;2023-09-19T12:42:19;6.43;;;4.03;;
21754;SDS011;11039;50.028;19.938;2023-09-19T12:44:48;5.75;;;4.00;;
21754;SDS011;11039;50.028;19.938;2023-09-19T12:47:20;4.95;;;3.95;;
21754;SDS011;11039;50.028;19.938;2023-09-19T12:54:58;3.78;;;3.42;;
21754;SDS011;11039;50.028;19.938;2023-09-19T12:57:27;4.70;;;3.80;;
21754;SDS011;11039;50.028;19.938;2023-09-19T12:59:53;4.47;;;3.70;;
21754;SDS011;11039;50.028;19.938;2023-09-19T13:02:20;4.50;;;3.63;;
21754;SDS011;11039;50.028;19.938;2023-09-19T13:04:52;5.15;;;3.63;;
21754;SDS011;11039;50.028;19.938;2023-09-19T13:07:40;5.18;;;3.25;;
21754;SDS011;11039;50.028;19.938;2023-09-19T13:10:08;5.43;;;3.65;;
21754;SDS011;11039;50.028;19.938;2023-09-19T13:12:41;5.03;;;3.60;;
21754;SDS011;11039;50.028;19.938;2023-09-19T13:17:42;5.18;;;3.72;;
21754;SDS011;11039;50.028;19.938;2023-09-19T13:20:20;5.40;;;3.63;;
21754;SDS011;11039;50.028;19.938;2023-09-19T13:22:49;4.85;;;3.83;;
21754;SDS011;11039;50.028;19.938;2023-09-19T13:25:20;5.32;;;3.72;;
21754;SDS011;11039;50.028;19.938;2023-09-19T13:27:52;5.05;;;3.85;;
21754;SDS011;11039;50.028;19.938;2023-09-19T13:30:21;7.30;;;4.03;;
21754;SDS011;11039;50.028;19.938;2023-09-19T13:32:47;6.47;;;4.72;;
21754;SDS011;11039;50.028;19.938;2023-09-19T13:35:14;4.38;;;3.50;;
21754;SDS011;11039;50.028;19.938;2023-09-19T13:37:40;6.90;;;4.45;;
21754;SDS011;11039;50.028;19.938;2023-09-19T13:40:09;4.30;;;3.75;;
21754;SDS011;11039;50.028;19.938;2023-09-19T13:42:36;4.93;;;4.43;;
21754;SDS011;11039;50.028;19.938;2023-09-19T13:45:02;4.80;;;3.90;;
21754;SDS011;11039;50.028;19.938;2023-09-19T13:47:29;4.82;;;3.88;;
21754;SDS011;11039;50.028;19.938;2023-09-19T13:49:55;6.28;;;4.20;;
21754;SDS011;11039;50.028;19.938;2023-09-19T13:52:22;5.00;;;4.10;;
21754;SDS011;11039;50.028;19.938;2023-09-19T13:54:51;6.15;;;4.28;;
21754;SDS011;11039;50.028;19.938;2023-09-19T13:57:18;7.35;;;4.30;;
21754;SDS011;11039;50.028;19.938;2023-09-19T13:59:44;6.05;;;3.97;;
21754;SDS011;11039;50.028;19.938;2023-09-19T14:02:10;4.43;;;3.70;;
21754;SDS011;11039;50.028;19.938;2023-09-19T14:04:36;5.85;;;4.13;;
21754;SDS011;11039;50.028;19.938;2023-09-19T14:07:02;4.68;;;4.05;;
21754;SDS011;11039;50.028;19.938;2023-09-19T14:11:47;5.78;;;4.30;;
21754;SDS011;11039;50.028;19.938;2023-09-19T14:14:13;4.63;;;4.10;;
21754;SDS011;11039;50.028;19.938;2023-09-19T14:16:40;6.03;;;4.57;;
21754;SDS011;11039;50.028;19.938;2023-09-19T14:19:07;6.75;;;4.38;;
21754;SDS011;11039;50.028;19.938;2023-09-19T14:21:33;5.82;;;4.00;;
21754;SDS011;11039;50.028;19.938;2023-09-19T14:24:01;5.95;;;5.00;;
21754;SDS011;11039;50.028;19.938;2023-09-19T14:26:27;6.03;;;5.00;;
21754;SDS011;11039;50.028;19.938;2023-09-19T14:28:53;5.18;;;4.38;;
21754;SDS011;11039;50.028;19.938;2023-09-19T14:31:19;6.20;;;4.25;;
21754;SDS011;11039;50.028;19.938;2023-09-19T14:33:45;6.22;;;4.72;;
21754;SDS011;11039;50.028;19.938;2023-09-19T14:36:11;5.35;;;4.63;;
21754;SDS011;11039;50.028;19.938;2023-09-19T14:38:38;5.88;;;4.60;;
21754;SDS011;11039;50.028;19.938;2023-09-19T14:41:05;5.38;;;4.72;;
21754;SDS011;11039;50.028;19.938;2023-09-19T14:43:31;6.43;;;5.05;;
21754;SDS011;11039;50.028;19.938;2023-09-19T14:46:06;5.95;;;5.10;;
21754;SDS011;11039;50.028;19.938;2023-09-19T14:48:33;5.80;;;4.90;;
21754;SDS011;11039;50.028;19.938;2023-09-19T14:51:03;7.38;;;5.43;;
21754;SDS011;11039;50.028;19.938;2023-09-19T14:53:29;7.72;;;5.22;;
21754;SDS011;11039;50.028;19.938;2023-09-19T14:55:55;6.15;;;5.15;;
21754;SDS011;11039;50.028;19.938;2023-09-19T14:58:21;7.07;;;5.22;;
21754;SDS011;11039;50.028;19.938;2023-09-19T15:00:47;6.53;;;5.80;;
21754;SDS011;11039;50.028;19.938;2023-09-19T15:03:13;8.63;;;5.30;;
21754;SDS011;11039;50.028;19.938;2023-09-19T15:05:39;6.30;;;5.63;;
21754;SDS011;11039;50.028;19.938;2023-09-19T15:08:06;9.05;;;5.97;;
21754;SDS011;11039;50.028;19.938;2023-09-19T15:10:32;7.32;;;6.63;;
21754;SDS011;11039;50.028;19.938;2023-09-19T15:17:35;7.00;;;5.85;;
21754;SDS011;11039;50.028;19.938;2023-09-19T15:20:01;6.22;;;5.63;;
21754;SDS011;11039;50.028;19.938;2023-09-19T15:22:28;6.95;;;5.45;;
21754;SDS011;11039;50.028;19.938;2023-09-19T15:27:13;6.82;;;4.75;;
21754;SDS011;11039;50.028;19.938;2023-09-19T15:32:10;6.32;;;5.10;;
21754;SDS011;11039;50.028;19.938;2023-09-19T15:34:36;5.95;;;4.97;;
21754;SDS011;11039;50.028;19.938;2023-09-19T15:37:02;5.53;;;4.93;;
21754;SDS011;11039;50.028;19.938;2023-09-19T15:39:32;5.93;;;4.70;;
21754;SDS011;11039;50.028;19.938;2023-09-19T15:42:02;6.18;;;4.70;;
21754;SDS011;11039;50.028;19.938;2023-09-19T15:44:28;7.80;;;5.15;;
21754;SDS011;11039;50.028;19.938;2023-09-19T15:46:54;5.00;;;4.50;;
21754;SDS011;11039;50.028;19.938;2023-09-19T15:49:20;6.43;;;4.80;;
21754;SDS011;11039;50.028;19.938;2023-09-19T15:51:47;6.60;;;4.82;;
21754;SDS011;11039;50.028;19.938;2023-09-19T15:54:14;8.15;;;5.10;;
21754;SDS011;11039;50.028;19.938;2023-09-19T15:56:43;5.65;;;4.50;;
21754;SDS011;11039;50.028;19.938;2023-09-19T15:59:10;6.60;;;4.82;;
21754;SDS011;11039;50.028;19.938;2023-09-19T16:01:40;5.90;;;5.07;;
21754;SDS011;11039;50.028;19.938;2023-09-19T16:04:07;5.75;;;4.38;;
21754;SDS011;11039;50.028;19.938;2023-09-19T16:06:33;6.30;;;5.07;;
21754;SDS011;11039;50.028;19.938;2023-09-19T16:09:00;6.70;;;4.93;;
21754;SDS011;11039;50.028;19.938;2023-09-19T16:13:51;6.25;;;5.13;;
21754;SDS011;11039;50.028;19.938;2023-09-19T16:16:18;6.00;;;4.75;;
21754;SDS011;11039;50.028;19.938;2023-09-19T16:18:51;9.55;;;5.03;;
21754;SDS011;11039;50.028;19.938;2023-09-19T16:21:18;7.47;;;4.95;;